sensor_id;sensor_type;location;lat;lon;timestamp;temperature;humidity
354;DHT22;165;53.592;10.044;2022-10-16T00:02:08;14.40;99.90
354;DHT22;165;53.592;10.044;2022-10-16T00:04:33;14.40;99.90
354;DHT22;165;53.592;10.044;2022-10-16T00:06:59;14.50;99.90
354;DHT22;165;53.592;10.044;2022-10-16T00:09:24;14.40;99.90
354;DHT22;165;53.592;10.044;2022-10-16T00:11:50;14.40;99.90
354;DHT22;165;53.592;10.044;2022-10-16T00:14:15;14.40;99.90
354;DHT22;165;53.592;10.044;2022-10-16T00:16:41;14.40;99.90
354;DHT22;165;53.592;10.044;2022-10-16T00:19:07;14.30;99.90
354;DHT22;165;53.592;10.044;2022-10-16T00:21:33;14.30;99.90
354;DHT22;165;53.592;10.044;2022-10-16T00:24:05;14.30;99.90
354;DHT22;165;53.592;10.044;2022-10-16T00:26:32;14.30;99.90
354;DHT22;165;53.592;10.044;2022-10-16T00:28:58;14.40;99.90
354;DHT22;165;53.592;10.044;2022-10-16T00:31:24;14.40;99.90
354;DHT22;165;53.592;10.044;2022-10-16T00:33:50;14.40;99.90
354;DHT22;165;53.592;10.044;2022-10-16T00:36:19;14.40;99.90
354;DHT22;165;53.592;10.044;2022-10-16T00:38:45;14.40;99.90
354;DHT22;165;53.592;10.044;2022-10-16T00:41:13;14.30;99.90
354;DHT22;165;53.592;10.044;2022-10-16T00:43:46;14.40;99.90
354;DHT22;165;53.592;10.044;2022-10-16T00:46:31;14.40;99.90
354;DHT22;165;53.592;10.044;2022-10-16T00:49:06;14.40;99.90
354;DHT22;165;53.592;10.044;2022-10-16T00:51:40;14.40;99.90
354;DHT22;165;53.592;10.044;2022-10-16T00:54:13;14.40;99.90
354;DHT22;165;53.592;10.044;2022-10-16T00:56:39;14.40;99.90
354;DHT22;165;53.592;10.044;2022-10-16T00:59:14;14.50;99.90
354;DHT22;165;53.592;10.044;2022-10-16T01:01:40;14.50;99.90
354;DHT22;165;53.592;10.044;2022-10-16T01:04:06;14.60;99.90
354;DHT22;165;53.592;10.044;2022-10-16T01:06:54;14.60;99.90
354;DHT22;165;53.592;10.044;2022-10-16T01:14:59;14.50;99.90
354;DHT22;165;53.592;10.044;2022-10-16T01:17:28;14.50;99.90
354;DHT22;165;53.592;10.044;2022-10-16T01:22:37;14.50;99.90
354;DHT22;165;53.592;10.044;2022-10-16T01:25:11;14.50;99.90
354;DHT22;165;53.592;10.044;2022-10-16T01:27:39;14.50;99.90
354;DHT22;165;53.592;10.044;2022-10-16T01:30:23;14.50;99.90
354;DHT22;165;53.592;10.044;2022-10-16T01:32:54;14.50;99.90
354;DHT22;165;53.592;10.044;2022-10-16T01:35:30;14.50;99.90
354;DHT22;165;53.592;10.044;2022-10-16T01:38:12;14.40;99.90
354;DHT22;165;53.592;10.044;2022-10-16T01:40:46;14.30;99.90
354;DHT22;165;53.592;10.044;2022-10-16T01:46:37;14.20;99.90
354;DHT22;165;53.592;10.044;2022-10-16T01:49:05;14.20;99.90
354;DHT22;165;53.592;10.044;2022-10-16T01:51:32;14.10;99.90
354;DHT22;165;53.592;10.044;2022-10-16T01:54:00;14.10;99.90
354;DHT22;165;53.592;10.044;2022-10-16T01:56:28;14.00;99.90
354;DHT22;165;53.592;10.044;2022-10-16T01:59:01;14.00;99.90
354;DHT22;165;53.592;10.044;2022-10-16T02:01:31;14.00;99.90
354;DHT22;165;53.592;10.044;2022-10-16T02:04:05;14.00;99.90
354;DHT22;165;53.592;10.044;2022-10-16T02:06:32;13.90;99.90
354;DHT22;165;53.592;10.044;2022-10-16T02:08:59;13.90;99.90
354;DHT22;165;53.592;10.044;2022-10-16T02:11:24;13.90;99.90
354;DHT22;165;53.592;10.044;2022-10-16T02:13:54;13.90;99.90
354;DHT22;165;53.592;10.044;2022-10-16T02:16:32;13.90;99.90
354;DHT22;165;53.592;10.044;2022-10-16T02:18:57;13.90;99.90
354;DHT22;165;53.592;10.044;2022-10-16T02:21:30;13.90;99.90
354;DHT22;165;53.592;10.044;2022-10-16T02:24:09;13.90;99.90
354;DHT22;165;53.592;10.044;2022-10-16T02:26:52;13.90;99.90
354;DHT22;165;53.592;10.044;2022-10-16T02:29:24;13.80;99.90
354;DHT22;165;53.592;10.044;2022-10-16T02:32:02;13.80;99.90
354;DHT22;165;53.592;10.044;2022-10-16T02:34:32;13.80;99.90
354;DHT22;165;53.592;10.044;2022-10-16T02:36:58;13.80;99.90
354;DHT22;165;53.592;10.044;2022-10-16T02:39:27;13.80;99.90
354;DHT22;165;53.592;10.044;2022-10-16T02:41:52;13.70;99.90
354;DHT22;165;53.592;10.044;2022-10-16T02:44:18;13.70;99.90
354;DHT22;165;53.592;10.044;2022-10-16T02:46:43;13.70;99.90
354;DHT22;165;53.592;10.044;2022-10-16T02:49:09;13.70;99.90
354;DHT22;165;53.592;10.044;2022-10-16T02:51:34;13.70;99.90
354;DHT22;165;53.592;10.044;2022-10-16T02:54:00;13.70;99.90
354;DHT22;165;53.592;10.044;2022-10-16T02:56:26;13.60;99.90
354;DHT22;165;53.592;10.044;2022-10-16T02:58:51;13.60;99.90
354;DHT22;165;53.592;10.044;2022-10-16T03:01:17;13.60;99.90
354;DHT22;165;53.592;10.044;2022-10-16T03:03:42;13.50;99.90
354;DHT22;165;53.592;10.044;2022-10-16T03:06:08;13.50;99.90
354;DHT22;165;53.592;10.044;2022-10-16T03:08:35;13.40;99.90
354;DHT22;165;53.592;10.044;2022-10-16T03:11:00;13.40;99.90
354;DHT22;165;53.592;10.044;2022-10-16T03:13:26;13.30;99.90
354;DHT22;165;53.592;10.044;2022-10-16T03:15:51;13.30;99.90
354;DHT22;165;53.592;10.044;2022-10-16T03:18:17;13.30;99.90
354;DHT22;165;53.592;10.044;2022-10-16T03:20:43;13.30;99.90
354;DHT22;165;53.592;10.044;2022-10-16T03:23:08;13.20;99.90
354;DHT22;165;53.592;10.044;2022-10-16T03:25:34;13.20;99.90
354;DHT22;165;53.592;10.044;2022-10-16T03:27:59;13.20;99.90
354;DHT22;165;53.592;10.044;2022-10-16T03:30:25;13.10;99.90
354;DHT22;165;53.592;10.044;2022-10-16T03:32:50;13.10;99.90
354;DHT22;165;53.592;10.044;2022-10-16T03:35:19;13.00;99.90
354;DHT22;165;53.592;10.044;2022-10-16T03:37:45;13.10;99.90
354;DHT22;165;53.592;10.044;2022-10-16T03:40:11;13.00;99.90
354;DHT22;165;53.592;10.044;2022-10-16T03:42:36;13.00;99.90
354;DHT22;165;53.592;10.044;2022-10-16T03:45:03;12.90;99.90
354;DHT22;165;53.592;10.044;2022-10-16T03:47:28;12.90;99.90
354;DHT22;165;53.592;10.044;2022-10-16T03:49:54;12.90;99.90
354;DHT22;165;53.592;10.044;2022-10-16T03:52:19;12.90;99.90
354;DHT22;165;53.592;10.044;2022-10-16T03:54:44;12.90;99.90
354;DHT22;165;53.592;10.044;2022-10-16T03:57:10;13.00;99.90
354;DHT22;165;53.592;10.044;2022-10-16T03:59:35;13.00;99.90
354;DHT22;165;53.592;10.044;2022-10-16T04:02:01;13.00;99.90
354;DHT22;165;53.592;10.044;2022-10-16T04:04:26;13.00;99.90
354;DHT22;165;53.592;10.044;2022-10-16T04:06:52;13.00;99.90
354;DHT22;165;53.592;10.044;2022-10-16T04:09:17;13.00;99.90
354;DHT22;165;53.592;10.044;2022-10-16T04:11:43;13.00;99.90
354;DHT22;165;53.592;10.044;2022-10-16T04:14:08;13.00;99.90
354;DHT22;165;53.592;10.044;2022-10-16T04:16:34;13.00;99.90
354;DHT22;165;53.592;10.044;2022-10-16T04:18:59;13.00;99.90
354;DHT22;165;53.592;10.044;2022-10-16T04:21:25;12.90;99.90
354;DHT22;165;53.592;10.044;2022-10-16T04:23:50;12.90;99.90
354;DHT22;165;53.592;10.044;2022-10-16T04:26:16;12.90;99.90
354;DHT22;165;53.592;10.044;2022-10-16T04:28:41;12.90;99.90
354;DHT22;165;53.592;10.044;2022-10-16T04:31:07;12.90;99.90
354;DHT22;165;53.592;10.044;2022-10-16T04:33:33;12.90;99.90
354;DHT22;165;53.592;10.044;2022-10-16T04:36:00;12.90;99.90
354;DHT22;165;53.592;10.044;2022-10-16T04:38:25;13.00;99.90
354;DHT22;165;53.592;10.044;2022-10-16T04:40:52;13.00;99.90
354;DHT22;165;53.592;10.044;2022-10-16T04:43:18;12.90;99.90
354;DHT22;165;53.592;10.044;2022-10-16T04:45:43;13.00;99.90
354;DHT22;165;53.592;10.044;2022-10-16T04:48:09;12.90;99.90
354;DHT22;165;53.592;10.044;2022-10-16T04:50:35;12.90;99.90
354;DHT22;165;53.592;10.044;2022-10-16T04:53:00;12.90;99.90
354;DHT22;165;53.592;10.044;2022-10-16T04:55:26;12.80;99.90
354;DHT22;165;53.592;10.044;2022-10-16T04:57:51;12.80;99.90
354;DHT22;165;53.592;10.044;2022-10-16T05:00:17;12.80;99.90
354;DHT22;165;53.592;10.044;2022-10-16T05:02:42;12.80;99.90
354;DHT22;165;53.592;10.044;2022-10-16T05:05:08;12.80;99.90
354;DHT22;165;53.592;10.044;2022-10-16T05:07:34;12.80;99.90
354;DHT22;165;53.592;10.044;2022-10-16T05:09:59;12.80;99.90
354;DHT22;165;53.592;10.044;2022-10-16T05:12:25;12.80;99.90
354;DHT22;165;53.592;10.044;2022-10-16T05:14:50;12.70;99.90
354;DHT22;165;53.592;10.044;2022-10-16T05:17:16;12.70;99.90
354;DHT22;165;53.592;10.044;2022-10-16T05:19:41;12.70;99.90
354;DHT22;165;53.592;10.044;2022-10-16T05:22:06;12.70;99.90
354;DHT22;165;53.592;10.044;2022-10-16T05:24:32;12.70;99.90
354;DHT22;165;53.592;10.044;2022-10-16T05:26:57;12.70;99.90
354;DHT22;165;53.592;10.044;2022-10-16T05:29:23;12.70;99.90
354;DHT22;165;53.592;10.044;2022-10-16T05:31:52;12.70;99.90
354;DHT22;165;53.592;10.044;2022-10-16T05:34:18;12.70;99.90
354;DHT22;165;53.592;10.044;2022-10-16T05:36:44;12.70;99.90
354;DHT22;165;53.592;10.044;2022-10-16T05:39:10;12.60;99.90
354;DHT22;165;53.592;10.044;2022-10-16T05:41:36;12.60;99.90
354;DHT22;165;53.592;10.044;2022-10-16T05:44:04;12.60;99.90
354;DHT22;165;53.592;10.044;2022-10-16T05:46:31;12.70;99.90
354;DHT22;165;53.592;10.044;2022-10-16T05:48:56;12.70;99.90
354;DHT22;165;53.592;10.044;2022-10-16T05:51:22;12.70;99.90
354;DHT22;165;53.592;10.044;2022-10-16T05:53:47;12.80;99.90
354;DHT22;165;53.592;10.044;2022-10-16T05:56:13;12.80;99.90
354;DHT22;165;53.592;10.044;2022-10-16T05:58:39;12.80;99.90
354;DHT22;165;53.592;10.044;2022-10-16T06:01:17;12.90;99.90
354;DHT22;165;53.592;10.044;2022-10-16T06:03:43;12.90;99.90
354;DHT22;165;53.592;10.044;2022-10-16T06:06:11;13.00;99.90
354;DHT22;165;53.592;10.044;2022-10-16T06:08:37;13.00;99.90
354;DHT22;165;53.592;10.044;2022-10-16T06:11:05;13.20;99.90
354;DHT22;165;53.592;10.044;2022-10-16T06:13:31;13.20;99.90
354;DHT22;165;53.592;10.044;2022-10-16T06:15:58;13.30;99.90
354;DHT22;165;53.592;10.044;2022-10-16T06:18:24;13.30;99.90
354;DHT22;165;53.592;10.044;2022-10-16T06:20:51;13.40;99.90
354;DHT22;165;53.592;10.044;2022-10-16T06:23:17;13.40;99.90
354;DHT22;165;53.592;10.044;2022-10-16T06:25:42;13.40;99.90
354;DHT22;165;53.592;10.044;2022-10-16T06:28:08;13.30;99.90
354;DHT22;165;53.592;10.044;2022-10-16T06:30:33;13.20;99.90
354;DHT22;165;53.592;10.044;2022-10-16T06:32:59;13.20;99.90
354;DHT22;165;53.592;10.044;2022-10-16T06:35:24;13.10;99.90
354;DHT22;165;53.592;10.044;2022-10-16T06:37:49;13.10;99.90
354;DHT22;165;53.592;10.044;2022-10-16T06:40:15;13.10;99.90
354;DHT22;165;53.592;10.044;2022-10-16T06:42:41;13.10;99.90
354;DHT22;165;53.592;10.044;2022-10-16T06:45:07;13.10;99.90
354;DHT22;165;53.592;10.044;2022-10-16T06:47:33;13.10;99.90
354;DHT22;165;53.592;10.044;2022-10-16T06:50:00;13.20;99.90
354;DHT22;165;53.592;10.044;2022-10-16T06:52:28;13.30;99.90
354;DHT22;165;53.592;10.044;2022-10-16T06:54:53;13.40;99.90
354;DHT22;165;53.592;10.044;2022-10-16T06:57:18;13.50;99.90
354;DHT22;165;53.592;10.044;2022-10-16T06:59:44;13.60;99.90
354;DHT22;165;53.592;10.044;2022-10-16T07:02:09;13.60;99.90
354;DHT22;165;53.592;10.044;2022-10-16T07:09:46;13.90;99.90
354;DHT22;165;53.592;10.044;2022-10-16T07:12:11;14.10;99.90
354;DHT22;165;53.592;10.044;2022-10-16T07:14:39;14.30;99.90
354;DHT22;165;53.592;10.044;2022-10-16T07:17:07;14.60;99.90
354;DHT22;165;53.592;10.044;2022-10-16T07:19:34;14.90;99.90
354;DHT22;165;53.592;10.044;2022-10-16T07:22:19;15.20;99.90
354;DHT22;165;53.592;10.044;2022-10-16T07:24:47;15.40;99.90
354;DHT22;165;53.592;10.044;2022-10-16T07:27:13;15.60;99.90
354;DHT22;165;53.592;10.044;2022-10-16T07:32:29;15.70;99.90
354;DHT22;165;53.592;10.044;2022-10-16T07:34:54;15.70;99.90
354;DHT22;165;53.592;10.044;2022-10-16T07:37:26;15.70;99.90
354;DHT22;165;53.592;10.044;2022-10-16T07:39:59;15.70;99.90
354;DHT22;165;53.592;10.044;2022-10-16T07:42:25;15.60;99.90
354;DHT22;165;53.592;10.044;2022-10-16T07:44:50;15.60;99.90
354;DHT22;165;53.592;10.044;2022-10-16T07:47:15;15.70;99.90
354;DHT22;165;53.592;10.044;2022-10-16T07:49:41;15.70;99.90
354;DHT22;165;53.592;10.044;2022-10-16T07:52:06;15.90;99.90
354;DHT22;165;53.592;10.044;2022-10-16T07:54:32;16.10;99.90
354;DHT22;165;53.592;10.044;2022-10-16T07:56:57;16.50;99.90
354;DHT22;165;53.592;10.044;2022-10-16T07:59:23;17.70;99.90
354;DHT22;165;53.592;10.044;2022-10-16T08:01:49;18.00;99.90
354;DHT22;165;53.592;10.044;2022-10-16T08:04:15;17.70;99.90
354;DHT22;165;53.592;10.044;2022-10-16T08:06:40;17.50;99.90
354;DHT22;165;53.592;10.044;2022-10-16T08:09:07;17.40;99.90
354;DHT22;165;53.592;10.044;2022-10-16T08:11:33;17.60;99.90
354;DHT22;165;53.592;10.044;2022-10-16T08:13:59;17.50;99.90
354;DHT22;165;53.592;10.044;2022-10-16T08:18:59;17.30;99.90
354;DHT22;165;53.592;10.044;2022-10-16T08:21:25;17.20;99.90
354;DHT22;165;53.592;10.044;2022-10-16T08:23:52;17.30;99.90
354;DHT22;165;53.592;10.044;2022-10-16T08:26:18;17.60;99.90
354;DHT22;165;53.592;10.044;2022-10-16T08:28:44;18.40;99.90
354;DHT22;165;53.592;10.044;2022-10-16T08:31:14;19.50;99.90
354;DHT22;165;53.592;10.044;2022-10-16T08:33:42;20.40;99.90
354;DHT22;165;53.592;10.044;2022-10-16T08:36:09;21.70;99.90
354;DHT22;165;53.592;10.044;2022-10-16T08:38:35;22.40;99.90
354;DHT22;165;53.592;10.044;2022-10-16T08:47:17;22.90;99.90
354;DHT22;165;53.592;10.044;2022-10-16T08:49:57;21.90;99.90
354;DHT22;165;53.592;10.044;2022-10-16T08:52:28;22.30;99.90
354;DHT22;165;53.592;10.044;2022-10-16T08:54:55;23.10;99.90
354;DHT22;165;53.592;10.044;2022-10-16T08:57:23;22.80;99.90
354;DHT22;165;53.592;10.044;2022-10-16T08:59:50;23.10;99.90
354;DHT22;165;53.592;10.044;2022-10-16T09:02:35;22.90;99.90
354;DHT22;165;53.592;10.044;2022-10-16T09:05:41;23.30;99.90
354;DHT22;165;53.592;10.044;2022-10-16T09:08:27;23.40;99.90
354;DHT22;165;53.592;10.044;2022-10-16T09:11:23;23.60;99.90
354;DHT22;165;53.592;10.044;2022-10-16T09:16:43;22.00;99.90
354;DHT22;165;53.592;10.044;2022-10-16T09:19:24;22.60;99.90
354;DHT22;165;53.592;10.044;2022-10-16T09:21:56;23.40;99.90
354;DHT22;165;53.592;10.044;2022-10-16T09:24:25;24.10;99.90
354;DHT22;165;53.592;10.044;2022-10-16T09:26:51;24.70;99.90
354;DHT22;165;53.592;10.044;2022-10-16T09:29:18;25.00;99.90
354;DHT22;165;53.592;10.044;2022-10-16T09:31:47;25.60;99.90
354;DHT22;165;53.592;10.044;2022-10-16T09:34:36;25.20;99.90
354;DHT22;165;53.592;10.044;2022-10-16T09:37:09;25.50;99.90
354;DHT22;165;53.592;10.044;2022-10-16T09:40:02;25.60;99.90
354;DHT22;165;53.592;10.044;2022-10-16T09:42:34;25.30;99.90
354;DHT22;165;53.592;10.044;2022-10-16T09:45:02;25.10;99.90
354;DHT22;165;53.592;10.044;2022-10-16T09:47:40;24.90;99.90
354;DHT22;165;53.592;10.044;2022-10-16T09:50:27;25.50;99.90
354;DHT22;165;53.592;10.044;2022-10-16T09:53:10;25.80;99.90
354;DHT22;165;53.592;10.044;2022-10-16T09:55:47;26.40;99.40
354;DHT22;165;53.592;10.044;2022-10-16T09:58:15;26.80;97.10
354;DHT22;165;53.592;10.044;2022-10-16T10:01:31;26.60;96.30
354;DHT22;165;53.592;10.044;2022-10-16T10:04:14;26.80;95.40
354;DHT22;165;53.592;10.044;2022-10-16T10:12:38;25.80;94.20
354;DHT22;165;53.592;10.044;2022-10-16T10:15:13;25.60;95.90
354;DHT22;165;53.592;10.044;2022-10-16T10:25:47;26.90;92.70
354;DHT22;165;53.592;10.044;2022-10-16T10:31:00;25.70;94.60
354;DHT22;165;53.592;10.044;2022-10-16T10:33:56;25.50;94.20
354;DHT22;165;53.592;10.044;2022-10-16T10:36:41;25.70;94.10
354;DHT22;165;53.592;10.044;2022-10-16T10:42:05;25.00;95.30
354;DHT22;165;53.592;10.044;2022-10-16T11:03:09;24.20;94.40
354;DHT22;165;53.592;10.044;2022-10-16T11:10:58;22.90;97.10
354;DHT22;165;53.592;10.044;2022-10-16T11:13:42;22.40;98.00
354;DHT22;165;53.592;10.044;2022-10-16T11:16:22;21.80;99.10
354;DHT22;165;53.592;10.044;2022-10-16T11:18:59;21.30;99.90
354;DHT22;165;53.592;10.044;2022-10-16T11:21:30;20.90;99.90
354;DHT22;165;53.592;10.044;2022-10-16T11:26:52;20.20;99.90
354;DHT22;165;53.592;10.044;2022-10-16T11:29:29;19.90;99.90
354;DHT22;165;53.592;10.044;2022-10-16T11:32:10;19.90;99.90
354;DHT22;165;53.592;10.044;2022-10-16T11:34:47;19.80;99.90
354;DHT22;165;53.592;10.044;2022-10-16T11:37:18;19.90;99.90
354;DHT22;165;53.592;10.044;2022-10-16T11:39:45;20.00;99.90
354;DHT22;165;53.592;10.044;2022-10-16T11:42:20;19.90;99.90
354;DHT22;165;53.592;10.044;2022-10-16T11:45:25;20.00;99.90
354;DHT22;165;53.592;10.044;2022-10-16T11:48:01;20.20;99.90
354;DHT22;165;53.592;10.044;2022-10-16T12:01:38;20.20;99.90
354;DHT22;165;53.592;10.044;2022-10-16T12:04:39;20.20;99.90
354;DHT22;165;53.592;10.044;2022-10-16T12:07:17;20.00;99.90
354;DHT22;165;53.592;10.044;2022-10-16T12:09:44;19.60;99.90
354;DHT22;165;53.592;10.044;2022-10-16T12:15:27;19.10;99.90
354;DHT22;165;53.592;10.044;2022-10-16T12:17:53;18.90;99.90
354;DHT22;165;53.592;10.044;2022-10-16T12:20:30;18.80;99.90
354;DHT22;165;53.592;10.044;2022-10-16T12:23:01;18.90;99.90
354;DHT22;165;53.592;10.044;2022-10-16T12:25:53;19.00;99.90
354;DHT22;165;53.592;10.044;2022-10-16T12:28:25;18.80;99.90
354;DHT22;165;53.592;10.044;2022-10-16T12:30:59;18.70;99.90
354;DHT22;165;53.592;10.044;2022-10-16T12:33:33;18.60;99.90
354;DHT22;165;53.592;10.044;2022-10-16T12:36:27;18.60;99.90
354;DHT22;165;53.592;10.044;2022-10-16T12:38:54;18.70;99.90
354;DHT22;165;53.592;10.044;2022-10-16T12:41:46;19.00;99.90
354;DHT22;165;53.592;10.044;2022-10-16T12:54:37;19.30;99.90
354;DHT22;165;53.592;10.044;2022-10-16T13:08:57;19.30;99.90
354;DHT22;165;53.592;10.044;2022-10-16T13:14:37;19.50;99.90
354;DHT22;165;53.592;10.044;2022-10-16T13:17:15;19.30;99.90
354;DHT22;165;53.592;10.044;2022-10-16T13:23:15;19.10;99.90
354;DHT22;165;53.592;10.044;2022-10-16T13:28:28;19.00;99.90
354;DHT22;165;53.592;10.044;2022-10-16T13:30:57;18.90;99.90
354;DHT22;165;53.592;10.044;2022-10-16T13:35:58;18.90;99.90
354;DHT22;165;53.592;10.044;2022-10-16T13:38:28;18.90;99.90
354;DHT22;165;53.592;10.044;2022-10-16T13:45:55;18.70;99.90
354;DHT22;165;53.592;10.044;2022-10-16T13:48:22;18.60;99.90
354;DHT22;165;53.592;10.044;2022-10-16T13:51:01;18.70;99.90
354;DHT22;165;53.592;10.044;2022-10-16T13:53:27;18.70;99.90
354;DHT22;165;53.592;10.044;2022-10-16T13:55:52;18.70;99.90
354;DHT22;165;53.592;10.044;2022-10-16T13:58:18;18.70;99.90
354;DHT22;165;53.592;10.044;2022-10-16T14:00:56;18.70;99.90
354;DHT22;165;53.592;10.044;2022-10-16T14:03:22;18.60;99.90
354;DHT22;165;53.592;10.044;2022-10-16T14:06:15;18.70;99.90
354;DHT22;165;53.592;10.044;2022-10-16T14:08:48;18.80;99.90
354;DHT22;165;53.592;10.044;2022-10-16T14:11:21;18.80;99.90
354;DHT22;165;53.592;10.044;2022-10-16T14:13:48;18.90;99.90
354;DHT22;165;53.592;10.044;2022-10-16T14:16:20;18.80;99.90
354;DHT22;165;53.592;10.044;2022-10-16T14:18:50;18.90;99.90
354;DHT22;165;53.592;10.044;2022-10-16T14:21:20;18.80;99.90
354;DHT22;165;53.592;10.044;2022-10-16T14:23:45;18.90;99.90
354;DHT22;165;53.592;10.044;2022-10-16T14:26:16;18.80;99.90
354;DHT22;165;53.592;10.044;2022-10-16T14:28:43;18.90;99.90
354;DHT22;165;53.592;10.044;2022-10-16T14:31:33;18.80;99.90
354;DHT22;165;53.592;10.044;2022-10-16T14:33:59;18.90;99.90
354;DHT22;165;53.592;10.044;2022-10-16T14:36:27;18.80;99.90
354;DHT22;165;53.592;10.044;2022-10-16T14:39:19;18.80;99.90
354;DHT22;165;53.592;10.044;2022-10-16T14:41:48;18.60;99.90
354;DHT22;165;53.592;10.044;2022-10-16T14:44:14;18.50;99.90
354;DHT22;165;53.592;10.044;2022-10-16T14:46:43;18.50;99.90
354;DHT22;165;53.592;10.044;2022-10-16T14:51:36;18.50;99.90
354;DHT22;165;53.592;10.044;2022-10-16T14:54:03;18.50;99.90
354;DHT22;165;53.592;10.044;2022-10-16T14:56:42;18.30;99.90
354;DHT22;165;53.592;10.044;2022-10-16T14:59:17;18.20;99.90
354;DHT22;165;53.592;10.044;2022-10-16T15:01:44;18.10;99.90
354;DHT22;165;53.592;10.044;2022-10-16T15:04:11;18.10;99.90
354;DHT22;165;53.592;10.044;2022-10-16T15:06:37;18.10;99.90
354;DHT22;165;53.592;10.044;2022-10-16T15:09:03;18.20;99.90
354;DHT22;165;53.592;10.044;2022-10-16T15:11:28;18.20;99.90
354;DHT22;165;53.592;10.044;2022-10-16T15:13:56;18.10;99.90
354;DHT22;165;53.592;10.044;2022-10-16T15:16:21;17.90;99.90
354;DHT22;165;53.592;10.044;2022-10-16T15:18:47;17.80;99.90
354;DHT22;165;53.592;10.044;2022-10-16T15:21:22;17.70;99.90
354;DHT22;165;53.592;10.044;2022-10-16T15:23:49;17.60;99.90
354;DHT22;165;53.592;10.044;2022-10-16T15:26:16;17.50;99.90
354;DHT22;165;53.592;10.044;2022-10-16T15:28:41;17.40;99.90
354;DHT22;165;53.592;10.044;2022-10-16T15:31:07;17.30;99.90
354;DHT22;165;53.592;10.044;2022-10-16T15:33:33;17.30;99.90
354;DHT22;165;53.592;10.044;2022-10-16T15:36:00;17.20;99.90
354;DHT22;165;53.592;10.044;2022-10-16T15:38:27;17.10;99.90
354;DHT22;165;53.592;10.044;2022-10-16T15:40:53;17.00;99.90
354;DHT22;165;53.592;10.044;2022-10-16T15:43:19;16.90;99.90
354;DHT22;165;53.592;10.044;2022-10-16T15:45:59;16.90;99.90
354;DHT22;165;53.592;10.044;2022-10-16T15:48:26;16.80;99.90
354;DHT22;165;53.592;10.044;2022-10-16T15:56:08;16.60;99.90
354;DHT22;165;53.592;10.044;2022-10-16T15:58:34;16.60;99.90
354;DHT22;165;53.592;10.044;2022-10-16T16:03:34;16.40;99.90
354;DHT22;165;53.592;10.044;2022-10-16T16:06:05;16.30;99.90
354;DHT22;165;53.592;10.044;2022-10-16T16:13:33;16.10;99.90
354;DHT22;165;53.592;10.044;2022-10-16T16:15:59;16.00;99.90
354;DHT22;165;53.592;10.044;2022-10-16T16:18:27;16.10;99.90
354;DHT22;165;53.592;10.044;2022-10-16T16:21:07;15.90;99.90
354;DHT22;165;53.592;10.044;2022-10-16T16:23:32;15.90;99.90
354;DHT22;165;53.592;10.044;2022-10-16T16:28:35;15.80;99.90
354;DHT22;165;53.592;10.044;2022-10-16T16:33:36;15.70;99.90
354;DHT22;165;53.592;10.044;2022-10-16T16:36:04;15.60;99.90
354;DHT22;165;53.592;10.044;2022-10-16T16:38:34;15.60;99.90
354;DHT22;165;53.592;10.044;2022-10-16T16:41:24;15.50;99.90
354;DHT22;165;53.592;10.044;2022-10-16T16:43:55;15.40;99.90
354;DHT22;165;53.592;10.044;2022-10-16T16:46:23;15.30;99.90
354;DHT22;165;53.592;10.044;2022-10-16T16:48:52;15.30;99.90
354;DHT22;165;53.592;10.044;2022-10-16T16:51:21;15.10;99.90
354;DHT22;165;53.592;10.044;2022-10-16T16:56:26;15.00;99.90
354;DHT22;165;53.592;10.044;2022-10-16T16:58:54;14.90;99.90
354;DHT22;165;53.592;10.044;2022-10-16T17:01:26;14.90;99.90
354;DHT22;165;53.592;10.044;2022-10-16T17:04:10;14.80;99.90
354;DHT22;165;53.592;10.044;2022-10-16T17:09:13;14.70;99.90
354;DHT22;165;53.592;10.044;2022-10-16T17:11:40;14.70;99.90
354;DHT22;165;53.592;10.044;2022-10-16T17:14:10;14.70;99.90
354;DHT22;165;53.592;10.044;2022-10-16T17:16:36;14.70;99.90
354;DHT22;165;53.592;10.044;2022-10-16T17:19:07;14.60;99.90
354;DHT22;165;53.592;10.044;2022-10-16T17:21:34;14.60;99.90
354;DHT22;165;53.592;10.044;2022-10-16T17:24:00;14.60;99.90
354;DHT22;165;53.592;10.044;2022-10-16T17:26:39;14.50;99.90
354;DHT22;165;53.592;10.044;2022-10-16T17:29:10;14.40;99.90
354;DHT22;165;53.592;10.044;2022-10-16T17:31:36;14.30;99.90
354;DHT22;165;53.592;10.044;2022-10-16T17:34:04;14.20;99.90
354;DHT22;165;53.592;10.044;2022-10-16T17:36:33;14.20;99.90
354;DHT22;165;53.592;10.044;2022-10-16T17:39:06;14.20;99.90
354;DHT22;165;53.592;10.044;2022-10-16T17:41:35;14.10;99.90
354;DHT22;165;53.592;10.044;2022-10-16T17:44:01;14.10;99.90
354;DHT22;165;53.592;10.044;2022-10-16T17:49:16;14.00;99.90
354;DHT22;165;53.592;10.044;2022-10-16T17:51:42;14.00;99.90
354;DHT22;165;53.592;10.044;2022-10-16T17:54:08;14.00;99.90
354;DHT22;165;53.592;10.044;2022-10-16T17:56:35;14.00;99.90
354;DHT22;165;53.592;10.044;2022-10-16T17:59:02;13.90;99.90
354;DHT22;165;53.592;10.044;2022-10-16T18:01:30;13.90;99.90
354;DHT22;165;53.592;10.044;2022-10-16T18:04:01;13.80;99.90
354;DHT22;165;53.592;10.044;2022-10-16T18:06:27;13.70;99.90
354;DHT22;165;53.592;10.044;2022-10-16T18:08:55;13.70;99.90
354;DHT22;165;53.592;10.044;2022-10-16T18:11:22;13.60;99.90
354;DHT22;165;53.592;10.044;2022-10-16T18:13:51;13.60;99.90
354;DHT22;165;53.592;10.044;2022-10-16T18:16:17;13.50;99.90
354;DHT22;165;53.592;10.044;2022-10-16T18:18:43;13.50;99.90
354;DHT22;165;53.592;10.044;2022-10-16T18:21:10;13.50;99.90
354;DHT22;165;53.592;10.044;2022-10-16T18:23:39;13.40;99.90
354;DHT22;165;53.592;10.044;2022-10-16T18:26:05;13.40;99.90
354;DHT22;165;53.592;10.044;2022-10-16T18:28:32;13.40;99.90
354;DHT22;165;53.592;10.044;2022-10-16T18:31:00;13.40;99.90
354;DHT22;165;53.592;10.044;2022-10-16T18:33:27;13.30;99.90
354;DHT22;165;53.592;10.044;2022-10-16T18:35:55;13.40;99.90
354;DHT22;165;53.592;10.044;2022-10-16T18:38:20;13.40;99.90
354;DHT22;165;53.592;10.044;2022-10-16T18:40:46;13.30;99.90
354;DHT22;165;53.592;10.044;2022-10-16T18:43:12;13.30;99.90
354;DHT22;165;53.592;10.044;2022-10-16T18:45:38;13.30;99.90
354;DHT22;165;53.592;10.044;2022-10-16T18:48:03;13.30;99.90
354;DHT22;165;53.592;10.044;2022-10-16T18:50:29;13.20;99.90
354;DHT22;165;53.592;10.044;2022-10-16T18:52:54;13.20;99.90
354;DHT22;165;53.592;10.044;2022-10-16T18:55:20;13.30;99.90
354;DHT22;165;53.592;10.044;2022-10-16T18:57:48;13.30;99.90
354;DHT22;165;53.592;10.044;2022-10-16T19:00:13;13.20;99.90
354;DHT22;165;53.592;10.044;2022-10-16T19:02:39;13.20;99.90
354;DHT22;165;53.592;10.044;2022-10-16T19:05:05;13.20;99.90
354;DHT22;165;53.592;10.044;2022-10-16T19:07:30;13.20;99.90
354;DHT22;165;53.592;10.044;2022-10-16T19:09:56;13.20;99.90
354;DHT22;165;53.592;10.044;2022-10-16T19:12:21;13.20;99.90